createdAt,value
2018-11-26T00:00:36.293Z,6.80
2018-11-26T00:03:08.751Z,6.80
2018-11-26T00:05:38.141Z,6.80
2018-11-26T00:08:08.079Z,6.80
2018-11-26T00:11:48.714Z,6.90
2018-11-26T00:14:17.108Z,6.80
2018-11-26T00:16:45.452Z,6.70
2018-11-26T00:19:13.844Z,6.80
2018-11-26T00:21:42.181Z,6.80
2018-11-26T00:24:10.619Z,6.70
2018-11-26T00:26:39.005Z,6.90
2018-11-26T00:29:07.391Z,6.90
2018-11-26T00:31:35.743Z,7.00
2018-11-26T00:34:04.123Z,6.90
2018-11-26T00:36:32.534Z,6.80
2018-11-26T00:39:00.944Z,6.80
2018-11-26T00:41:29.315Z,6.80
2018-11-26T00:43:57.666Z,6.80
2018-11-26T00:46:26.041Z,6.90
2018-11-26T00:48:54.378Z,6.90
2018-11-26T00:51:22.772Z,7.00
2018-11-26T00:53:51.107Z,7.00
2018-11-26T00:56:19.493Z,7.10
2018-11-26T00:58:47.938Z,6.90
2018-11-26T01:01:16.319Z,7.00
2018-11-26T01:03:48.128Z,7.00
2018-11-26T01:06:16.584Z,7.00
2018-11-26T01:08:44.972Z,7.00
2018-11-26T01:11:13.342Z,7.00
2018-11-26T01:13:41.752Z,7.10
2018-11-26T01:16:10.332Z,7.00
2018-11-26T01:18:39.572Z,7.10
2018-11-26T01:21:07.960Z,7.00
2018-11-26T01:23:37.033Z,7.00
2018-11-26T01:26:05.660Z,7.00
2018-11-26T01:28:34.101Z,7.10
2018-11-26T01:31:02.460Z,7.00
2018-11-26T01:33:30.809Z,7.00
2018-11-26T01:35:59.196Z,7.10
2018-11-26T01:38:27.567Z,7.10
2018-11-26T01:40:56.528Z,7.00
2018-11-26T01:43:24.893Z,7.00
2018-11-26T01:45:53.268Z,7.10
2018-11-26T01:48:21.656Z,7.10
2018-11-26T01:50:50.026Z,7.00
2018-11-26T01:53:18.416Z,7.10
2018-11-26T01:55:46.797Z,7.10
2018-11-26T01:58:15.194Z,7.10
2018-11-26T02:00:43.541Z,7.10
2018-11-26T02:03:11.907Z,7.10
2018-11-26T02:05:40.288Z,7.10
2018-11-26T02:08:08.662Z,7.10
2018-11-26T02:10:37.029Z,7.10
2018-11-26T02:13:05.449Z,7.20
2018-11-26T02:15:36.455Z,7.20
2018-11-26T02:18:04.995Z,7.20
2018-11-26T02:20:33.422Z,7.20
2018-11-26T02:23:01.936Z,7.30
2018-11-26T02:25:30.325Z,7.30
2018-11-26T02:27:58.716Z,7.30
2018-11-26T02:30:27.078Z,7.30
2018-11-26T02:32:55.428Z,7.30
2018-11-26T02:35:23.843Z,7.40
2018-11-26T02:37:53.027Z,7.30
2018-11-26T02:40:23.676Z,7.30
2018-11-26T02:42:52.251Z,7.40
2018-11-26T02:45:20.647Z,7.40
2018-11-26T02:47:49.001Z,7.40
2018-11-26T02:50:17.380Z,7.40
2018-11-26T02:52:45.772Z,7.40
2018-11-26T02:55:14.355Z,7.40
2018-11-26T02:57:42.807Z,7.40
2018-11-26T03:00:12.321Z,7.40
2018-11-26T03:02:40.804Z,7.40
2018-11-26T03:05:11.505Z,7.40
2018-11-26T03:07:39.966Z,7.40
2018-11-26T03:10:11.266Z,7.40
2018-11-26T03:12:39.779Z,7.50
2018-11-26T03:15:10.984Z,7.50
2018-11-26T03:17:40.408Z,7.50
2018-11-26T03:20:09.981Z,7.50
2018-11-26T03:22:38.450Z,7.40
2018-11-26T03:25:08.555Z,7.40
2018-11-26T03:27:37.105Z,7.40
2018-11-26T03:37:06.884Z,7.40
2018-11-26T03:39:35.526Z,7.40
2018-11-26T03:42:03.923Z,7.40
2018-11-26T03:44:32.356Z,7.40
2018-11-26T03:47:00.723Z,7.40
2018-11-26T03:49:29.175Z,7.40
2018-11-26T03:51:57.598Z,7.40
2018-11-26T03:54:26.015Z,7.40
2018-11-26T03:56:54.451Z,7.40
2018-11-26T03:59:22.830Z,7.40
2018-11-26T04:01:51.853Z,7.40
2018-11-26T04:04:20.253Z,7.30
2018-11-26T04:06:48.659Z,7.30
2018-11-26T04:09:17.088Z,7.30
2018-11-26T04:11:45.536Z,7.30
2018-11-26T04:14:13.966Z,7.30
2018-11-26T04:16:42.336Z,7.20
2018-11-26T04:19:10.730Z,7.30
2018-11-26T04:21:39.131Z,7.30
2018-11-26T04:24:07.528Z,7.30
2018-11-26T04:26:35.954Z,7.30
2018-11-26T04:29:04.441Z,7.30
2018-11-26T04:31:32.936Z,7.30
2018-11-26T04:34:01.363Z,7.40
2018-11-26T04:36:29.772Z,7.30
2018-11-26T04:38:58.147Z,7.20
2018-11-26T04:41:26.544Z,7.20
2018-11-26T04:43:54.960Z,7.20
2018-11-26T04:46:23.506Z,7.20
2018-11-26T04:48:51.944Z,7.20
2018-11-26T04:51:20.342Z,7.20
2018-11-26T04:53:48.799Z,7.20
2018-11-26T04:56:17.213Z,7.20
2018-11-26T04:58:45.668Z,7.20
2018-11-26T05:01:14.080Z,7.20
2018-11-26T05:03:42.519Z,7.20
2018-11-26T05:06:10.941Z,7.20
2018-11-26T05:08:39.361Z,7.10
2018-11-26T05:11:07.788Z,7.10
2018-11-26T05:13:36.315Z,7.10
2018-11-26T05:16:04.722Z,7.10
2018-11-26T05:18:33.145Z,7.10
2018-11-26T05:21:01.693Z,7.10
2018-11-26T05:23:30.116Z,7.10
2018-11-26T05:25:58.641Z,7.10
2018-11-26T05:28:27.072Z,7.20
2018-11-26T05:30:55.588Z,7.20
2018-11-26T05:33:24.088Z,7.10
2018-11-26T05:35:52.591Z,7.10
2018-11-26T05:38:21.007Z,7.10
2018-11-26T05:40:49.444Z,7.10
2018-11-26T05:43:18.436Z,7.00
2018-11-26T05:45:46.872Z,7.00
2018-11-26T05:48:15.286Z,7.00
2018-11-26T05:50:43.753Z,7.00
2018-11-26T05:53:12.349Z,7.00
2018-11-26T05:55:40.795Z,6.90
2018-11-26T05:58:09.280Z,7.00
2018-11-26T06:00:37.725Z,7.10
2018-11-26T06:03:06.789Z,6.90
2018-11-26T06:05:36.326Z,6.90
2018-11-26T06:08:05.661Z,6.90
2018-11-26T06:10:34.048Z,6.90
2018-11-26T06:13:03.122Z,6.90
2018-11-26T06:15:31.007Z,6.80
2018-11-26T06:17:59.496Z,6.80
2018-11-26T06:20:28.524Z,6.70
2018-11-26T06:22:56.954Z,6.70
2018-11-26T06:25:25.555Z,6.60
2018-11-26T06:27:53.936Z,6.00
2018-11-26T06:30:22.319Z,6.50
2018-11-26T06:32:50.701Z,6.50
2018-11-26T06:35:23.089Z,6.50
2018-11-26T06:37:51.569Z,6.50
2018-11-26T06:40:19.981Z,6.40
2018-11-26T06:42:48.447Z,6.40
2018-11-26T06:45:22.059Z,6.40
2018-11-26T06:47:51.421Z,6.50
2018-11-26T06:50:21.500Z,6.40
2018-11-26T06:52:49.979Z,6.40
2018-11-26T06:55:19.893Z,6.40
2018-11-26T06:57:48.335Z,6.50
2018-11-26T07:00:18.185Z,6.50
2018-11-26T07:02:47.448Z,6.70
2018-11-26T07:05:18.076Z,6.70
2018-11-26T07:07:46.518Z,6.70
2018-11-26T07:10:15.659Z,6.80
2018-11-26T07:12:44.209Z,6.70
2018-11-26T07:15:15.158Z,6.80
2018-11-26T07:17:44.599Z,6.70
2018-11-26T07:20:15.196Z,6.70
2018-11-26T07:22:43.572Z,6.70
2018-11-26T07:25:15.959Z,6.60
2018-11-26T07:27:45.678Z,6.60
2018-11-26T07:30:17.439Z,6.70
2018-11-26T07:32:45.873Z,6.80
2018-11-26T07:35:15.377Z,6.80
2018-11-26T07:37:43.835Z,6.70
2018-11-26T07:40:17.584Z,6.80
2018-11-26T07:42:59.299Z,6.70
2018-11-26T07:45:27.776Z,6.80
2018-11-26T07:47:56.219Z,6.90
2018-11-26T07:50:24.634Z,6.90
2018-11-26T07:52:52.983Z,7.00
2018-11-26T07:55:22.094Z,7.00
2018-11-26T07:57:50.767Z,6.90
2018-11-26T08:00:20.251Z,6.90
2018-11-26T08:02:49.417Z,6.90
2018-11-26T08:05:18.834Z,6.90
2018-11-26T08:07:47.234Z,6.80
2018-11-26T08:10:18.079Z,5.70
2018-11-26T08:12:48.335Z,6.80
2018-11-26T08:15:19.881Z,6.70
2018-11-26T08:17:48.320Z,6.70
2018-11-26T08:20:16.796Z,6.80
2018-11-26T08:22:45.259Z,6.90
2018-11-26T08:25:19.595Z,6.90
2018-11-26T08:27:48.887Z,6.80
2018-11-26T08:30:21.593Z,6.80
2018-11-26T08:32:52.215Z,6.90
2018-11-26T08:35:20.793Z,6.90
2018-11-26T08:37:54.625Z,6.90
2018-11-26T08:40:28.452Z,6.90
2018-11-26T08:42:58.374Z,6.90
2018-11-26T08:45:29.911Z,7.00
2018-11-26T08:48:31.242Z,7.00
2018-11-26T08:51:02.626Z,7.00
2018-11-26T08:53:31.431Z,7.00
2018-11-26T08:55:59.964Z,7.10
2018-11-26T08:58:28.516Z,7.10
2018-11-26T09:01:02.491Z,7.00
2018-11-26T09:03:36.882Z,7.00
2018-11-26T09:06:06.095Z,7.10
2018-11-26T09:08:36.089Z,7.10
2018-11-26T09:11:05.322Z,7.20
2018-11-26T09:13:33.908Z,7.20
2018-11-26T09:16:02.395Z,7.10
2018-11-26T09:18:30.802Z,7.10
2018-11-26T09:20:59.754Z,7.30
2018-11-26T09:23:28.395Z,7.20
2018-11-26T09:25:56.883Z,7.20
2018-11-26T09:28:25.312Z,7.30
2018-11-26T09:30:53.725Z,7.30
2018-11-26T09:33:22.230Z,7.40
2018-11-26T09:35:51.366Z,7.40
2018-11-26T09:38:26.703Z,7.40
2018-11-26T09:40:55.212Z,7.40
2018-11-26T09:43:23.768Z,7.40
2018-11-26T09:45:52.224Z,7.50
2018-11-26T09:48:20.719Z,7.50
2018-11-26T09:50:49.255Z,7.50
2018-11-26T09:53:17.710Z,7.30
2018-11-26T09:55:46.256Z,7.40
2018-11-26T09:58:14.785Z,7.30
2018-11-26T10:00:43.232Z,7.40
2018-11-26T10:03:11.686Z,7.50
2018-11-26T10:05:40.112Z,7.40
2018-11-26T10:08:08.564Z,7.40
2018-11-26T10:10:37.171Z,7.50
2018-11-26T10:13:06.658Z,7.60
2018-11-26T10:15:35.145Z,7.50
2018-11-26T10:18:03.612Z,7.50
2018-11-26T10:20:32.027Z,7.50
2018-11-26T10:23:00.543Z,7.50
2018-11-26T10:25:28.992Z,8.00
2018-11-26T10:27:57.482Z,7.50
2018-11-26T10:30:25.967Z,7.50
2018-11-26T10:32:54.772Z,7.60
2018-11-26T10:35:23.739Z,7.80
2018-11-26T10:37:52.254Z,7.80
2018-11-26T10:40:22.871Z,7.80
2018-11-26T10:42:51.366Z,7.80
2018-11-26T10:45:20.839Z,7.90
2018-11-26T10:47:49.418Z,7.90
2018-11-26T10:50:24.913Z,7.80
2018-11-26T10:52:54.665Z,7.80
2018-11-26T10:55:30.046Z,7.70
2018-11-26T10:57:58.527Z,7.80
2018-11-26T11:00:32.308Z,7.90
2018-11-26T11:03:00.738Z,7.80
2018-11-26T11:05:29.205Z,7.70
2018-11-26T11:07:57.673Z,7.70
2018-11-26T11:10:28.600Z,7.70
2018-11-26T11:12:57.067Z,7.60
2018-11-26T11:15:25.650Z,7.90
2018-11-26T11:17:54.242Z,7.80
2018-11-26T11:20:25.643Z,7.80
2018-11-26T11:22:54.175Z,7.80
2018-11-26T11:25:23.051Z,7.80
2018-11-26T11:27:51.812Z,7.90
2018-11-26T11:30:25.628Z,7.90
2018-11-26T11:32:54.292Z,7.90
2018-11-26T11:35:22.749Z,7.90
2018-11-26T11:37:57.860Z,8.00
2018-11-26T11:40:30.172Z,8.00
2018-11-26T11:42:59.289Z,7.90
2018-11-26T11:45:29.359Z,7.90
2018-11-26T11:47:57.792Z,8.00
2018-11-26T11:50:26.844Z,8.10
2018-11-26T11:52:55.240Z,8.00
2018-11-26T11:55:26.173Z,8.00
2018-11-26T11:57:54.683Z,7.90
2018-11-26T12:00:31.957Z,7.80
2018-11-26T12:03:01.565Z,8.00
2018-11-26T12:05:29.998Z,8.00
2018-11-26T12:07:58.503Z,8.00
2018-11-26T12:10:27.651Z,8.00
2018-11-26T12:12:56.060Z,8.00
2018-11-26T12:15:24.679Z,8.00
2018-11-26T12:17:53.061Z,8.10
2018-11-26T12:20:21.509Z,8.10
2018-11-26T12:22:49.904Z,8.10
2018-11-26T12:25:19.525Z,8.10
2018-11-26T12:27:48.012Z,8.10
2018-11-26T12:30:19.380Z,8.10
2018-11-26T12:32:47.845Z,8.20
2018-11-26T12:35:16.259Z,8.30
2018-11-26T12:37:44.799Z,8.30
2018-11-26T12:40:19.360Z,8.40
2018-11-26T12:42:48.148Z,8.30
2018-11-26T12:45:24.864Z,8.40
2018-11-26T12:47:53.268Z,8.30
2018-11-26T12:50:21.736Z,8.40
2018-11-26T12:52:50.137Z,8.50
2018-11-26T12:55:19.627Z,8.40
2018-11-26T12:57:49.426Z,8.50
2018-11-26T13:00:25.210Z,8.30
2018-11-26T13:02:57.957Z,8.40
2018-11-26T13:05:26.549Z,8.40
2018-11-26T13:07:55.062Z,8.40
2018-11-26T13:10:24.091Z,8.40
2018-11-26T13:12:53.058Z,8.30
2018-11-26T13:15:24.026Z,8.30
2018-11-26T13:17:52.702Z,8.40
2018-11-26T13:20:24.584Z,8.50
2018-11-26T13:22:53.646Z,8.40
2018-11-26T13:25:23.455Z,8.40
2018-11-26T13:27:53.996Z,8.40
2018-11-26T13:30:25.846Z,8.40
2018-11-26T13:32:55.910Z,8.40
2018-11-26T13:35:24.471Z,8.30
2018-11-26T13:37:52.945Z,8.20
2018-11-26T13:40:21.835Z,8.20
2018-11-26T13:42:50.873Z,8.20
2018-11-26T13:45:24.886Z,8.20
2018-11-26T13:47:53.461Z,8.20
2018-11-26T13:50:25.266Z,8.10
2018-11-26T13:52:53.890Z,8.10
2018-11-26T13:55:22.634Z,8.10
2018-11-26T13:57:51.139Z,8.10
2018-11-26T14:00:19.733Z,8.10
2018-11-26T14:02:48.179Z,8.10
2018-11-26T14:05:17.792Z,8.10
2018-11-26T14:07:46.952Z,8.10
2018-11-26T14:10:18.735Z,8.10
2018-11-26T14:12:49.161Z,8.20
2018-11-26T14:15:17.774Z,8.10
2018-11-26T14:17:46.299Z,8.10
2018-11-26T14:20:16.063Z,8.00
2018-11-26T14:22:44.591Z,8.00
2018-11-26T14:25:14.563Z,8.10
2018-11-26T14:27:43.754Z,8.00
2018-11-26T14:30:14.631Z,8.00
2018-11-26T14:32:43.086Z,8.00
2018-11-26T14:35:12.197Z,8.10
2018-11-26T14:37:40.222Z,8.10
2018-11-26T14:40:11.769Z,8.10
2018-11-26T14:42:40.591Z,8.10
2018-11-26T14:45:11.113Z,8.10
2018-11-26T14:47:39.828Z,8.10
2018-11-26T14:50:11.647Z,8.10
2018-11-26T14:52:40.551Z,8.10
2018-11-26T14:55:28.074Z,8.10
2018-11-26T14:57:56.722Z,8.10
2018-11-26T15:00:25.219Z,8.10
2018-11-26T15:05:39.651Z,8.20
2018-11-26T15:08:08.167Z,8.30
2018-11-26T15:10:36.615Z,8.20
2018-11-26T15:13:06.166Z,8.10
2018-11-26T15:15:34.660Z,8.10
2018-11-26T15:18:03.243Z,8.00
2018-11-26T15:20:31.739Z,8.00
2018-11-26T15:23:00.779Z,8.00
2018-11-26T15:25:30.615Z,7.90
2018-11-26T15:28:02.882Z,7.90
2018-11-26T15:30:31.433Z,8.00
2018-11-26T15:32:59.916Z,8.00
2018-11-26T15:35:28.384Z,7.90
2018-11-26T15:37:56.797Z,7.90
2018-11-26T15:40:25.422Z,7.90
2018-11-26T15:42:53.846Z,7.90
2018-11-26T15:45:24.638Z,7.90
2018-11-26T15:47:53.977Z,8.00
2018-11-26T15:50:24.610Z,7.90
2018-11-26T15:52:53.149Z,7.90
2018-11-26T15:55:22.122Z,7.90
2018-11-26T15:57:51.049Z,7.90
2018-11-26T16:00:24.475Z,7.90
2018-11-26T16:02:53.493Z,7.80
2018-11-26T16:05:24.280Z,7.80
2018-11-26T16:07:53.594Z,7.80
2018-11-26T16:10:22.047Z,7.80
2018-11-26T16:12:52.693Z,7.80
2018-11-26T16:15:22.651Z,7.80
2018-11-26T16:17:51.774Z,7.70
2018-11-26T16:20:24.531Z,7.80
2018-11-26T16:22:53.013Z,7.70
2018-11-26T16:25:22.651Z,7.70
2018-11-26T16:27:51.131Z,7.60
2018-11-26T16:30:19.904Z,7.60
2018-11-26T16:32:52.067Z,7.50
2018-11-26T16:35:21.975Z,7.60
2018-11-26T16:37:50.423Z,7.50
2018-11-26T16:40:18.917Z,7.50
2018-11-26T16:42:47.593Z,7.50
2018-11-26T16:45:19.464Z,7.40
2018-11-26T16:47:50.330Z,7.40
2018-11-26T16:50:20.145Z,7.40
2018-11-26T16:52:49.172Z,7.40
2018-11-26T16:55:18.203Z,7.40
2018-11-26T16:57:46.742Z,7.40
2018-11-26T17:00:18.513Z,7.40
2018-11-26T17:02:48.373Z,7.30
2018-11-26T17:05:19.693Z,7.30
2018-11-26T17:07:48.171Z,7.20
2018-11-26T17:10:16.641Z,7.20
2018-11-26T17:12:45.263Z,7.30
2018-11-26T17:15:16.108Z,7.10
2018-11-26T17:17:44.644Z,7.20
2018-11-26T17:20:15.924Z,7.20
2018-11-26T17:22:44.657Z,7.20
2018-11-26T17:25:14.597Z,7.20
2018-11-26T17:27:50.349Z,7.20
2018-11-26T17:30:21.653Z,7.20
2018-11-26T17:32:52.423Z,7.20
2018-11-26T17:35:20.986Z,7.30
2018-11-26T17:37:55.960Z,7.20
2018-11-26T17:40:28.827Z,7.20
2018-11-26T17:42:57.511Z,7.20
2018-11-26T17:45:26.765Z,7.20
2018-11-26T17:47:57.446Z,7.30
2018-11-26T17:50:34.082Z,7.20
2018-11-26T17:53:02.503Z,7.20
2018-11-26T17:55:31.117Z,7.20
2018-11-26T17:57:59.549Z,7.20
2018-11-26T18:00:31.045Z,7.10
2018-11-26T18:02:59.451Z,7.20
2018-11-26T18:05:29.388Z,7.10
2018-11-26T18:08:15.008Z,7.20
2018-11-26T18:10:43.511Z,7.10
2018-11-26T18:13:12.165Z,7.20
2018-11-26T18:15:40.670Z,7.20
2018-11-26T18:18:13.102Z,7.20
2018-11-26T18:20:41.582Z,7.20
2018-11-26T18:23:11.047Z,7.20
2018-11-26T18:25:39.919Z,7.20
2018-11-26T18:28:11.154Z,7.10
2018-11-26T18:30:54.268Z,7.00
2018-11-26T18:33:22.789Z,7.10
2018-11-26T18:35:51.314Z,7.10
2018-11-26T18:38:19.798Z,7.10
2018-11-26T18:40:50.193Z,7.20
2018-11-26T18:43:18.995Z,7.10
2018-11-26T18:45:47.657Z,7.20
2018-11-26T18:48:16.950Z,7.10
2018-11-26T18:50:45.761Z,7.20
2018-11-26T18:53:14.390Z,7.10
2018-11-26T18:55:43.507Z,7.10
2018-11-26T18:58:12.034Z,7.10
2018-11-26T19:00:46.454Z,7.10
2018-11-26T19:03:19.528Z,7.00
2018-11-26T19:05:49.188Z,6.90
2018-11-26T19:08:17.677Z,6.90
2018-11-26T19:10:47.490Z,7.00
2018-11-26T19:13:19.515Z,6.90
2018-11-26T19:15:49.189Z,6.90
2018-11-26T19:18:19.478Z,6.90
2018-11-26T19:20:48.148Z,6.90
2018-11-26T19:23:16.554Z,6.90
2018-11-26T19:25:45.769Z,6.90
2018-11-26T19:28:14.281Z,6.90
2018-11-26T19:30:42.730Z,6.90
2018-11-26T19:33:11.945Z,6.80
2018-11-26T19:35:40.344Z,6.80
2018-11-26T19:38:09.302Z,6.80
2018-11-26T19:40:38.990Z,6.80
2018-11-26T19:43:08.077Z,6.70
2018-11-26T19:45:37.154Z,6.70
2018-11-26T19:48:06.054Z,6.70
2018-11-26T19:50:34.973Z,6.70
2018-11-26T19:53:04.161Z,6.70
2018-11-26T19:55:32.624Z,6.70
2018-11-26T19:58:01.120Z,6.60
2018-11-26T20:00:30.977Z,6.60
2018-11-26T20:03:08.132Z,6.60
2018-11-26T20:05:55.468Z,6.60
2018-11-26T20:08:23.905Z,6.60
2018-11-26T20:10:52.302Z,6.60
2018-11-26T20:13:21.085Z,6.60
2018-11-26T20:15:50.017Z,6.60
2018-11-26T20:18:18.474Z,6.50
2018-11-26T20:20:47.014Z,6.50
2018-11-26T20:23:15.405Z,6.50
2018-11-26T20:25:43.838Z,6.50
2018-11-26T20:28:12.691Z,6.50
2018-11-26T20:30:41.148Z,6.50
2018-11-26T20:33:09.697Z,6.40
2018-11-26T20:35:38.590Z,6.50
2018-11-26T20:38:08.324Z,6.50
2018-11-26T20:40:37.530Z,6.40
2018-11-26T20:43:08.568Z,6.30
2018-11-26T20:45:37.724Z,6.30
2018-11-26T20:48:07.116Z,6.30
2018-11-26T20:50:35.649Z,6.30
2018-11-26T20:53:04.101Z,6.30
2018-11-26T20:55:32.512Z,6.30
2018-11-26T20:58:01.215Z,6.30
2018-11-26T21:00:29.889Z,6.30
2018-11-26T21:03:05.857Z,6.30
2018-11-26T21:05:34.313Z,6.30
2018-11-26T21:08:02.733Z,6.20
2018-11-26T21:10:31.229Z,6.30
2018-11-26T21:12:59.589Z,6.30
2018-11-26T21:15:28.410Z,6.40
2018-11-26T21:17:58.062Z,6.20
2018-11-26T21:20:35.737Z,6.10
2018-11-26T21:23:06.703Z,6.20
2018-11-26T21:25:35.950Z,6.20
2018-11-26T21:28:04.385Z,6.10
2018-11-26T21:30:32.773Z,6.10
2018-11-26T21:33:01.652Z,6.10
2018-11-26T21:35:30.085Z,6.10
2018-11-26T21:37:58.502Z,6.10
2018-11-26T21:40:26.954Z,6.10
2018-11-26T21:42:55.337Z,6.10
2018-11-26T21:45:47.007Z,6.10
2018-11-26T21:48:15.437Z,6.00
2018-11-26T21:50:43.833Z,6.20
2018-11-26T21:53:12.261Z,6.20
2018-11-26T21:55:40.676Z,6.00
2018-11-26T21:58:09.113Z,5.90
2018-11-26T22:00:38.812Z,6.00
2018-11-26T22:03:08.076Z,6.00
2018-11-26T22:05:37.769Z,5.90
2018-11-26T22:08:07.152Z,6.00
2018-11-26T22:10:36.801Z,5.90
2018-11-26T22:13:06.053Z,5.90
2018-11-26T22:15:34.427Z,5.90
2018-11-26T22:18:02.924Z,5.90
2018-11-26T22:20:31.899Z,6.00
2018-11-26T22:23:01.753Z,5.90
2018-11-26T22:25:30.198Z,5.80
2018-11-26T22:27:58.608Z,5.90
2018-11-26T22:30:29.662Z,5.70
2018-11-26T22:32:58.112Z,5.70
2018-11-26T22:35:26.550Z,5.70
2018-11-26T22:37:54.960Z,5.70
2018-11-26T22:40:24.838Z,5.70
2018-11-26T22:42:53.409Z,5.70
2018-11-26T22:45:24.081Z,5.70
2018-11-26T22:47:55.985Z,5.60
2018-11-26T22:50:24.426Z,5.70
2018-11-26T22:52:52.816Z,5.60
2018-11-26T22:55:21.185Z,5.70
2018-11-26T22:57:49.672Z,5.70
2018-11-26T23:00:42.834Z,5.70
2018-11-26T23:03:12.912Z,5.60
2018-11-26T23:05:41.321Z,5.70
2018-11-26T23:08:09.745Z,5.60
2018-11-26T23:10:38.169Z,5.70
2018-11-26T23:13:07.536Z,5.60
2018-11-26T23:15:35.968Z,5.70
2018-11-26T23:18:04.704Z,5.70
2018-11-26T23:20:33.126Z,5.70
2018-11-26T23:23:01.540Z,5.70
2018-11-26T23:25:30.018Z,5.70
2018-11-26T23:27:58.433Z,5.80
2018-11-26T23:30:28.133Z,5.80
2018-11-26T23:33:00.516Z,5.70
2018-11-26T23:35:29.056Z,5.60
2018-11-26T23:37:57.488Z,5.60
2018-11-26T23:40:25.889Z,5.70
2018-11-26T23:42:54.334Z,5.70
2018-11-26T23:45:24.105Z,5.60
2018-11-26T23:47:52.540Z,5.50
2018-11-26T23:50:20.943Z,5.50
2018-11-26T23:52:49.411Z,5.60
2018-11-26T23:55:19.000Z,5.60
2018-11-26T23:57:47.411Z,5.60
